createdAt,value
2017-06-30T00:00:49.805Z,0
2017-06-30T00:01:50.120Z,0
2017-06-30T00:02:49.850Z,0
2017-06-30T00:03:50.205Z,0
2017-06-30T00:04:50.237Z,0
2017-06-30T00:05:49.963Z,0
2017-06-30T00:06:50.315Z,0
2017-06-30T00:07:50.355Z,0
2017-06-30T00:08:50.391Z,0
2017-06-30T00:09:50.744Z,0
2017-06-30T00:10:50.474Z,0
2017-06-30T00:11:50.509Z,0
2017-06-30T00:12:51.467Z,0
2017-06-30T00:13:51.202Z,0
2017-06-30T00:14:50.618Z,0
2017-06-30T00:15:50.357Z,0
2017-06-30T00:16:51.008Z,0
2017-06-30T00:17:50.742Z,0
2017-06-30T00:18:50.479Z,0
2017-06-30T00:19:50.824Z,0
2017-06-30T00:20:50.551Z,0
2017-06-30T00:21:50.904Z,0
2017-06-30T00:22:50.929Z,0
2017-06-30T00:23:51.593Z,0
2017-06-30T00:24:51.315Z,0
2017-06-30T00:25:50.967Z,0
2017-06-30T00:26:51.090Z,0
2017-06-30T00:27:50.816Z,0
2017-06-30T00:28:50.857Z,0
2017-06-30T00:29:51.243Z,0
2017-06-30T00:30:50.941Z,0
2017-06-30T00:31:50.981Z,0
2017-06-30T00:32:51.329Z,0
2017-06-30T00:33:51.051Z,0
2017-06-30T00:34:51.441Z,0
2017-06-30T00:35:51.134Z,0
2017-06-30T00:36:51.481Z,0
2017-06-30T00:37:51.519Z,0
2017-06-30T00:38:51.245Z,0
2017-06-30T00:39:51.899Z,0
2017-06-30T00:40:51.632Z,0
2017-06-30T00:41:52.285Z,0
2017-06-30T00:42:51.408Z,0
2017-06-30T00:43:52.365Z,0
2017-06-30T00:44:51.792Z,0
2017-06-30T00:45:51.825Z,0
2017-06-30T00:46:52.182Z,0
2017-06-30T00:47:52.521Z,0
2017-06-30T00:48:51.639Z,0
2017-06-30T00:49:52.299Z,0
2017-06-30T00:50:51.712Z,0
2017-06-30T00:51:52.060Z,0
2017-06-30T00:52:52.112Z,0
2017-06-30T00:53:51.835Z,0
2017-06-30T00:54:52.179Z,0
2017-06-30T00:55:52.217Z,0
2017-06-30T00:56:52.253Z,0
2017-06-30T00:57:51.977Z,0
2017-06-30T00:58:52.633Z,0
2017-06-30T00:59:52.366Z,0
2017-06-30T01:00:52.412Z,0
2017-06-30T01:01:52.137Z,0
2017-06-30T01:02:52.177Z,0
2017-06-30T01:03:52.533Z,0
2017-06-30T01:04:52.558Z,0
2017-06-30T01:05:52.919Z,0
2017-06-30T01:06:52.950Z,0
2017-06-30T01:07:52.681Z,0
2017-06-30T01:08:52.410Z,0
2017-06-30T01:09:53.077Z,0
2017-06-30T01:10:52.795Z,0
2017-06-30T01:11:52.835Z,0
2017-06-30T01:12:52.880Z,0
2017-06-30T01:13:52.911Z,0
2017-06-30T01:14:52.954Z,0
2017-06-30T01:15:52.676Z,0
2017-06-30T01:16:53.337Z,0
2017-06-30T01:17:52.757Z,0
2017-06-30T01:18:53.108Z,0
2017-06-30T01:19:53.143Z,0
2017-06-30T01:20:52.883Z,0
2017-06-30T01:21:53.223Z,0
2017-06-30T01:22:53.265Z,0
2017-06-30T01:23:53.442Z,0
2017-06-30T01:24:53.337Z,0
2017-06-30T01:25:53.381Z,0
2017-06-30T01:26:53.103Z,0
2017-06-30T01:27:53.445Z,0
2017-06-30T01:28:53.486Z,0
2017-06-30T01:29:53.219Z,0
2017-06-30T01:30:53.566Z,0
2017-06-30T01:31:53.303Z,0
2017-06-30T01:32:53.642Z,0
2017-06-30T01:33:53.687Z,0
2017-06-30T01:34:53.419Z,0
2017-06-30T01:35:53.761Z,0
2017-06-30T01:36:53.492Z,0
2017-06-30T01:37:53.840Z,0
2017-06-30T01:38:53.874Z,0
2017-06-30T01:39:54.217Z,0
2017-06-30T01:40:53.650Z,0
2017-06-30T01:41:53.686Z,0
2017-06-30T01:42:54.334Z,0
2017-06-30T01:43:54.071Z,0
2017-06-30T01:44:54.435Z,0
2017-06-30T01:45:54.143Z,0
2017-06-30T01:46:53.892Z,0
2017-06-30T01:47:54.222Z,0
2017-06-30T01:48:54.568Z,0
2017-06-30T01:49:54.616Z,0
2017-06-30T01:50:54.030Z,0
2017-06-30T01:51:54.377Z,0
2017-06-30T01:52:54.105Z,0
2017-06-30T01:53:54.145Z,0
2017-06-30T01:54:55.108Z,0
2017-06-30T01:55:54.544Z,0
2017-06-30T01:56:54.883Z,0
2017-06-30T01:57:55.225Z,0
2017-06-30T01:58:54.958Z,0
2017-06-30T01:59:54.376Z,0
2017-06-30T02:00:54.731Z,0
2017-06-30T02:01:54.766Z,0
2017-06-30T02:02:54.502Z,0
2017-06-30T02:03:55.157Z,0
2017-06-30T02:04:54.577Z,0
2017-06-30T02:05:54.613Z,0
2017-06-30T02:06:55.263Z,0
2017-06-30T02:07:54.688Z,0
2017-06-30T02:08:54.724Z,0
2017-06-30T02:09:55.069Z,0
2017-06-30T02:10:55.125Z,0
2017-06-30T02:11:54.851Z,0
2017-06-30T02:12:54.878Z,0
2017-06-30T02:13:55.231Z,0
2017-06-30T02:14:55.266Z,0
2017-06-30T02:15:55.000Z,0
2017-06-30T02:16:55.045Z,0
2017-06-30T02:17:55.075Z,0
2017-06-30T02:18:55.119Z,0
2017-06-30T02:19:55.150Z,0
2017-06-30T02:20:55.195Z,0
2017-06-30T02:21:55.842Z,0
2017-06-30T02:22:55.264Z,0
2017-06-30T02:23:55.931Z,0
2017-06-30T02:24:55.345Z,0
2017-06-30T02:25:55.391Z,0
2017-06-30T02:26:55.728Z,0
2017-06-30T02:27:55.765Z,0
2017-06-30T02:28:55.807Z,0
2017-06-30T02:29:55.556Z,0
2017-06-30T02:30:55.884Z,0
2017-06-30T02:31:55.921Z,0
2017-06-30T02:32:55.660Z,0
2017-06-30T02:33:56.306Z,0
2017-06-30T02:34:55.731Z,0
2017-06-30T02:35:56.080Z,0
2017-06-30T02:36:56.424Z,0
2017-06-30T02:37:55.867Z,0
2017-06-30T02:38:56.191Z,0
2017-06-30T02:39:56.535Z,0
2017-06-30T02:40:56.274Z,0
2017-06-30T02:41:56.317Z,0
2017-06-30T02:42:56.355Z,0
2017-06-30T02:43:56.701Z,0
2017-06-30T02:44:56.422Z,0
2017-06-30T02:45:56.468Z,0
2017-06-30T02:46:56.515Z,0
2017-06-30T02:47:56.237Z,0
2017-06-30T02:48:56.271Z,0
2017-06-30T02:49:56.927Z,0
2017-06-30T02:50:56.659Z,0
2017-06-30T02:51:57.014Z,0
2017-06-30T02:52:56.733Z,0
2017-06-30T02:53:56.467Z,0
2017-06-30T02:54:57.121Z,0
2017-06-30T02:55:57.157Z,0
2017-06-30T02:56:56.579Z,0
2017-06-30T02:57:56.932Z,0
2017-06-30T02:58:57.270Z,0
2017-06-30T02:59:57.316Z,0
2017-06-30T03:00:57.349Z,0
2017-06-30T03:01:56.775Z,0
2017-06-30T03:02:57.160Z,0
2017-06-30T03:03:56.887Z,0
2017-06-30T03:04:56.889Z,0
2017-06-30T03:05:57.238Z,0
2017-06-30T03:06:57.281Z,0
2017-06-30T03:07:57.624Z,5
2017-06-30T03:08:57.047Z,5
2017-06-30T03:09:57.705Z,5
2017-06-30T03:10:57.740Z,5
2017-06-30T03:11:57.474Z,5
2017-06-30T03:12:57.534Z,5
2017-06-30T03:13:57.551Z,10
2017-06-30T03:14:57.582Z,10
2017-06-30T03:15:57.317Z,10
2017-06-30T03:16:58.277Z,10
2017-06-30T03:17:57.700Z,10
2017-06-30T03:18:57.427Z,10
2017-06-30T03:19:58.086Z,10
2017-06-30T03:20:57.506Z,10
2017-06-30T03:21:57.861Z,15
2017-06-30T03:22:57.594Z,15
2017-06-30T03:23:57.933Z,15
2017-06-30T03:24:57.968Z,20
2017-06-30T03:25:57.706Z,20
2017-06-30T03:26:57.743Z,20
2017-06-30T03:27:57.783Z,20
2017-06-30T03:28:57.819Z,20
2017-06-30T03:29:58.179Z,25
2017-06-30T03:30:58.210Z,25
2017-06-30T03:31:58.248Z,25
2017-06-30T03:32:58.284Z,25
2017-06-30T03:33:58.637Z,30
2017-06-30T03:34:58.052Z,30
2017-06-30T03:35:58.091Z,30
2017-06-30T03:36:58.135Z,35
2017-06-30T03:37:58.479Z,35
2017-06-30T03:38:58.210Z,35
2017-06-30T03:39:58.253Z,35
2017-06-30T03:40:58.289Z,35
2017-06-30T03:41:58.643Z,35
2017-06-30T03:42:58.674Z,35
2017-06-30T03:43:58.710Z,35
2017-06-30T03:44:58.756Z,35
2017-06-30T03:45:59.100Z,35
2017-06-30T03:46:59.134Z,35
2017-06-30T03:47:58.866Z,35
2017-06-30T03:48:58.596Z,40
2017-06-30T03:49:58.949Z,45
2017-06-30T03:50:58.674Z,50
2017-06-30T03:51:58.717Z,45
2017-06-30T03:52:59.061Z,45
2017-06-30T03:53:59.105Z,40
2017-06-30T03:54:58.855Z,35
2017-06-30T03:55:58.872Z,35
2017-06-30T03:56:58.912Z,35
2017-06-30T03:57:59.563Z,35
2017-06-30T03:58:59.602Z,35
2017-06-30T03:59:59.333Z,35
2017-06-30T04:00:59.063Z,35
2017-06-30T04:02:00.023Z,40
2017-06-30T04:02:59.148Z,40
2017-06-30T04:03:59.178Z,40
2017-06-30T04:04:59.841Z,40
2017-06-30T04:05:59.569Z,35
2017-06-30T04:06:59.607Z,25
2017-06-30T04:07:59.334Z,25
2017-06-30T04:08:59.989Z,25
2017-06-30T04:09:59.719Z,20
2017-06-30T04:10:59.761Z,20
2017-06-30T04:11:59.500Z,15
2017-06-30T04:12:59.841Z,15
2017-06-30T04:13:59.926Z,15
2017-06-30T04:14:59.914Z,15
2017-06-30T04:15:59.650Z,15
2017-06-30T04:17:00.619Z,15
2017-06-30T04:17:59.724Z,15
2017-06-30T04:18:59.766Z,15
2017-06-30T04:20:00.108Z,20
2017-06-30T04:20:59.842Z,20
2017-06-30T04:22:00.494Z,20
2017-06-30T04:22:59.928Z,20
2017-06-30T04:23:59.960Z,20
2017-06-30T04:25:00.000Z,20
2017-06-30T04:26:00.343Z,20
2017-06-30T04:27:00.076Z,20
2017-06-30T04:28:00.115Z,20
2017-06-30T04:29:00.765Z,25
2017-06-30T04:30:00.512Z,25
2017-06-30T04:31:00.543Z,30
2017-06-30T04:32:00.276Z,30
2017-06-30T04:33:00.617Z,30
2017-06-30T04:34:00.664Z,25
2017-06-30T04:35:00.720Z,25
2017-06-30T04:36:00.740Z,25
2017-06-30T04:37:01.078Z,20
2017-06-30T04:38:00.815Z,20
2017-06-30T04:39:00.863Z,15
2017-06-30T04:40:00.584Z,15
2017-06-30T04:41:00.665Z,20
2017-06-30T04:42:00.970Z,20
2017-06-30T04:43:01.008Z,20
2017-06-30T04:44:01.055Z,20
2017-06-30T04:45:00.773Z,25
2017-06-30T04:46:00.818Z,30
2017-06-30T04:47:00.853Z,35
2017-06-30T04:48:00.901Z,45
2017-06-30T04:49:01.542Z,50
2017-06-30T04:50:00.973Z,55
2017-06-30T04:51:01.321Z,55
2017-06-30T04:52:01.663Z,60
2017-06-30T04:53:01.085Z,65
2017-06-30T04:54:01.431Z,75
2017-06-30T04:55:01.161Z,85
2017-06-30T04:56:01.510Z,85
2017-06-30T04:57:01.244Z,85
2017-06-30T04:58:01.587Z,85
2017-06-30T04:59:01.318Z,95
2017-06-30T05:00:01.368Z,95
2017-06-30T05:01:01.711Z,90
2017-06-30T05:02:01.443Z,85
2017-06-30T05:03:02.094Z,85
2017-06-30T05:04:01.517Z,80
2017-06-30T05:05:02.173Z,80
2017-06-30T05:06:01.615Z,70
2017-06-30T05:07:01.939Z,60
2017-06-30T05:08:02.030Z,55
2017-06-30T05:09:01.711Z,50
2017-06-30T05:10:02.056Z,50
2017-06-30T05:11:01.791Z,50
2017-06-30T05:12:01.829Z,50
2017-06-30T05:13:02.187Z,45
2017-06-30T05:14:02.222Z,45
2017-06-30T05:15:01.946Z,45
2017-06-30T05:16:02.294Z,45
2017-06-30T05:17:02.023Z,40
2017-06-30T05:18:02.066Z,40
2017-06-30T05:19:02.105Z,40
2017-06-30T05:20:02.147Z,45
2017-06-30T05:21:02.489Z,50
2017-06-30T05:22:02.836Z,50
2017-06-30T05:23:02.574Z,50
2017-06-30T05:24:02.605Z,55
2017-06-30T05:25:02.334Z,60
2017-06-30T05:26:02.389Z,70
2017-06-30T05:27:02.418Z,80
2017-06-30T05:28:02.455Z,80
2017-06-30T05:29:02.805Z,80
2017-06-30T05:30:02.843Z,90
2017-06-30T05:31:02.569Z,105
2017-06-30T05:32:02.915Z,110
2017-06-30T05:33:02.649Z,100
2017-06-30T05:34:02.695Z,90
2017-06-30T05:35:03.035Z,95
2017-06-30T05:36:03.073Z,105
2017-06-30T05:37:03.117Z,100
2017-06-30T05:38:03.460Z,100
2017-06-30T05:39:03.188Z,105
2017-06-30T05:40:02.923Z,115
2017-06-30T05:41:02.965Z,135
2017-06-30T05:42:03.615Z,140
2017-06-30T05:43:03.039Z,140
2017-06-30T05:44:03.086Z,145
2017-06-30T05:45:03.125Z,155
2017-06-30T05:46:03.164Z,170
2017-06-30T05:47:03.199Z,175
2017-06-30T05:48:03.234Z,195
2017-06-30T05:49:03.279Z,215
2017-06-30T05:50:03.965Z,230
2017-06-30T05:51:03.397Z,240
2017-06-30T05:52:03.397Z,250
2017-06-30T05:53:03.435Z,260
2017-06-30T05:54:03.478Z,270
2017-06-30T05:55:03.821Z,265
2017-06-30T05:56:03.863Z,250
2017-06-30T05:57:04.209Z,230
2017-06-30T05:58:03.632Z,225
2017-06-30T05:59:03.673Z,230
2017-06-30T06:00:04.020Z,215
2017-06-30T06:01:03.754Z,200
2017-06-30T06:02:04.109Z,185
2017-06-30T06:03:04.138Z,180
2017-06-30T06:04:04.185Z,170
2017-06-30T06:05:03.915Z,160
2017-06-30T06:06:04.498Z,160
2017-06-30T06:07:04.605Z,165
2017-06-30T06:08:04.341Z,160
2017-06-30T06:09:04.305Z,150
2017-06-30T06:10:04.449Z,150
2017-06-30T06:11:04.461Z,155
2017-06-30T06:12:04.190Z,150
2017-06-30T06:13:04.234Z,140
2017-06-30T06:14:04.579Z,130
2017-06-30T06:15:04.729Z,125
2017-06-30T06:16:04.660Z,120
2017-06-30T06:17:04.704Z,135
2017-06-30T06:18:04.738Z,145
2017-06-30T06:19:04.468Z,155
2017-06-30T06:20:04.822Z,170
2017-06-30T06:21:04.553Z,180
2017-06-30T06:22:05.512Z,180
2017-06-30T06:23:04.940Z,175
2017-06-30T06:24:04.669Z,185
2017-06-30T06:25:05.015Z,210
2017-06-30T06:26:05.363Z,245
2017-06-30T06:27:05.096Z,260
2017-06-30T06:28:05.134Z,280
2017-06-30T06:29:05.194Z,295
2017-06-30T06:30:04.917Z,295
2017-06-30T06:31:04.955Z,280
2017-06-30T06:32:05.300Z,260
2017-06-30T06:33:05.336Z,255
2017-06-30T06:34:05.376Z,275
2017-06-30T06:35:05.735Z,275
2017-06-30T06:36:05.459Z,275
2017-06-30T06:37:05.187Z,270
2017-06-30T06:38:05.541Z,275
2017-06-30T06:39:05.572Z,280
2017-06-30T06:40:06.056Z,280
2017-06-30T06:41:05.967Z,280
2017-06-30T06:42:05.389Z,295
2017-06-30T06:43:05.744Z,315
2017-06-30T06:44:05.512Z,340
2017-06-30T06:45:05.518Z,375
2017-06-30T06:46:05.556Z,400
2017-06-30T06:47:05.592Z,440
2017-06-30T06:48:05.689Z,480
2017-06-30T06:49:05.990Z,555
2017-06-30T06:50:06.334Z,590
2017-06-30T06:51:06.067Z,605
2017-06-30T06:52:05.802Z,625
2017-06-30T06:53:05.836Z,590
2017-06-30T06:54:06.491Z,550
2017-06-30T06:55:06.234Z,555
2017-06-30T06:56:06.583Z,555
2017-06-30T06:57:06.042Z,660
2017-06-30T06:58:06.351Z,480
2017-06-30T06:59:06.396Z,420
2017-06-30T07:00:06.669Z,345
2017-06-30T07:01:06.577Z,300
2017-06-30T07:02:06.521Z,270
2017-06-30T07:03:06.565Z,240
2017-06-30T07:04:06.605Z,220
2017-06-30T07:05:06.951Z,220
2017-06-30T07:06:06.691Z,230
2017-06-30T07:07:07.039Z,235
2017-06-30T07:08:06.767Z,245
2017-06-30T07:09:06.815Z,265
2017-06-30T07:10:06.551Z,320
2017-06-30T07:11:06.900Z,410
2017-06-30T07:12:06.937Z,530
2017-06-30T07:13:06.669Z,745
2017-06-30T07:14:06.712Z,1075
2017-06-30T07:15:07.060Z,745
2017-06-30T07:16:07.204Z,975
2017-06-30T07:17:07.756Z,1210
2017-06-30T07:18:06.875Z,715
2017-06-30T07:19:06.920Z,985
2017-06-30T07:20:07.268Z,2020
2017-06-30T07:21:11.531Z,1725
2017-06-30T07:22:07.366Z,1475
2017-06-30T07:23:07.404Z,1135
2017-06-30T07:24:07.440Z,1040
2017-06-30T07:25:07.483Z,950
2017-06-30T07:26:07.272Z,450
2017-06-30T07:27:11.412Z,410
2017-06-30T07:28:07.622Z,415
2017-06-30T07:29:07.670Z,445
2017-06-30T07:30:11.779Z,525
2017-06-30T07:31:07.752Z,635
2017-06-30T07:32:07.494Z,1015
2017-06-30T07:33:07.838Z,490
2017-06-30T07:34:08.240Z,495
2017-06-30T07:35:08.242Z,510
2017-06-30T07:36:07.664Z,515
2017-06-30T07:37:07.712Z,510
2017-06-30T07:38:07.746Z,575
2017-06-30T07:39:07.791Z,570
2017-06-30T07:40:07.832Z,765
2017-06-30T07:41:08.186Z,650
2017-06-30T07:42:07.926Z,585
2017-06-30T07:43:08.271Z,765
2017-06-30T07:44:08.325Z,1145
2017-06-30T07:45:08.052Z,1910
2017-06-30T07:46:08.403Z,1405
2017-06-30T07:47:08.981Z,1590
2017-06-30T07:48:08.796Z,1160
2017-06-30T07:49:08.225Z,1245
2017-06-30T07:50:08.604Z,845
2017-06-30T07:51:08.316Z,790
2017-06-30T07:52:08.366Z,715
2017-06-30T07:53:08.453Z,740
2017-06-30T07:54:09.090Z,1400
2017-06-30T07:55:08.990Z,745
2017-06-30T07:56:08.864Z,1115
2017-06-30T07:57:09.215Z,865
2017-06-30T07:58:08.641Z,1875
2017-06-30T07:59:08.912Z,2005
2017-06-30T08:00:08.748Z,1860
2017-06-30T08:01:09.157Z,2145
2017-06-30T08:02:08.835Z,2025
2017-06-30T08:03:09.609Z,925
2017-06-30T08:04:09.529Z,1180
2017-06-30T08:05:09.569Z,775
2017-06-30T08:06:09.333Z,560
2017-06-30T08:07:09.042Z,515
2017-06-30T08:08:09.093Z,485
2017-06-30T08:09:09.449Z,470
2017-06-30T08:10:09.410Z,495
2017-06-30T08:11:09.230Z,465
2017-06-30T08:12:09.277Z,740
2017-06-30T08:13:09.328Z,645
2017-06-30T08:14:09.676Z,675
2017-06-30T08:15:09.417Z,455
2017-06-30T08:16:09.811Z,415
2017-06-30T08:17:09.816Z,415
2017-06-30T08:18:10.241Z,540
2017-06-30T08:19:11.247Z,510
2017-06-30T08:20:09.644Z,505
2017-06-30T08:21:09.985Z,955
2017-06-30T08:22:09.720Z,545
2017-06-30T08:23:10.071Z,695
2017-06-30T08:24:10.115Z,760
2017-06-30T08:25:10.153Z,955
2017-06-30T08:26:10.979Z,740
2017-06-30T08:27:09.933Z,680
2017-06-30T08:28:10.301Z,645
2017-06-30T08:29:10.031Z,800
2017-06-30T08:30:10.063Z,735
2017-06-30T08:31:10.734Z,655
2017-06-30T08:32:10.160Z,625
2017-06-30T08:33:10.822Z,665
2017-06-30T08:34:10.550Z,590
2017-06-30T08:35:10.287Z,510
2017-06-30T08:36:10.331Z,525
2017-06-30T08:37:10.686Z,595
2017-06-30T08:38:10.729Z,835
2017-06-30T08:39:10.495Z,830
2017-06-30T08:40:10.512Z,1375
2017-06-30T08:41:10.547Z,1440
2017-06-30T08:42:10.898Z,630
2017-06-30T08:43:10.960Z,980
2017-06-30T08:44:10.678Z,1165
2017-06-30T08:45:11.028Z,1075
2017-06-30T08:46:11.393Z,1195
2017-06-30T08:47:10.813Z,695
2017-06-30T08:48:10.859Z,660
2017-06-30T08:49:10.902Z,515
2017-06-30T08:50:10.951Z,420
2017-06-30T08:51:10.989Z,385
2017-06-30T08:52:11.034Z,380
2017-06-30T08:53:11.389Z,380
2017-06-30T08:54:11.121Z,440
2017-06-30T08:55:11.482Z,475
2017-06-30T08:56:11.229Z,480
2017-06-30T08:57:11.253Z,615
2017-06-30T08:58:11.293Z,685
2017-06-30T08:59:11.648Z,920
2017-06-30T09:00:12.003Z,820
2017-06-30T09:01:11.749Z,1025
2017-06-30T09:02:11.473Z,890
2017-06-30T09:03:11.529Z,1500
2017-06-30T09:04:11.561Z,2335
2017-06-30T09:05:12.279Z,2180
2017-06-30T09:06:12.642Z,1625
2017-06-30T09:07:12.789Z,1190
2017-06-30T09:08:12.357Z,1210
2017-06-30T09:09:12.406Z,1195
2017-06-30T09:10:12.449Z,1265
2017-06-30T09:11:12.180Z,1150
2017-06-30T09:12:12.225Z,1210
2017-06-30T09:13:12.575Z,1210
2017-06-30T09:14:12.313Z,670
2017-06-30T09:15:12.075Z,695
2017-06-30T09:16:12.109Z,585
2017-06-30T09:17:12.219Z,580
2017-06-30T09:18:12.810Z,665
2017-06-30T09:19:12.234Z,1280
2017-06-30T09:20:12.280Z,2305
2017-06-30T09:21:12.641Z,2400
2017-06-30T09:22:13.613Z,2500
2017-06-30T09:23:12.418Z,2595
2017-06-30T09:24:12.770Z,2465
2017-06-30T09:25:12.830Z,2605
2017-06-30T09:26:12.867Z,2580
2017-06-30T09:27:12.602Z,2650
2017-06-30T09:28:12.966Z,2550
2017-06-30T09:29:13.027Z,2615
2017-06-30T09:30:13.051Z,2710
2017-06-30T09:31:12.802Z,2605
2017-06-30T09:32:13.158Z,2580
2017-06-30T09:33:13.198Z,2565
2017-06-30T09:34:12.947Z,2670
2017-06-30T09:35:12.995Z,2590
2017-06-30T09:36:13.043Z,2695
2017-06-30T09:37:13.095Z,2545
2017-06-30T09:38:13.141Z,2405
2017-06-30T09:39:13.195Z,2410
2017-06-30T09:40:13.553Z,2450
2017-06-30T09:41:13.305Z,1130
2017-06-30T09:42:13.347Z,450
2017-06-30T09:43:13.405Z,265
2017-06-30T09:44:13.516Z,195
2017-06-30T09:45:13.809Z,185
2017-06-30T09:46:14.176Z,155
2017-06-30T09:47:13.903Z,120
2017-06-30T09:48:13.965Z,85
2017-06-30T09:49:13.699Z,75
2017-06-30T09:50:14.054Z,105
2017-06-30T09:51:14.101Z,160
2017-06-30T09:52:14.151Z,250
2017-06-30T09:53:13.888Z,405
2017-06-30T09:54:13.929Z,495
2017-06-30T09:55:14.286Z,1595
2017-06-30T09:56:14.328Z,2315
2017-06-30T09:57:14.682Z,1315
2017-06-30T09:58:14.423Z,2480
2017-06-30T09:59:14.167Z,2610
2017-06-30T10:00:14.261Z,1935
2017-06-30T10:01:14.257Z,2360
2017-06-30T10:02:14.618Z,2545
2017-06-30T10:03:14.359Z,2420
2017-06-30T10:04:14.711Z,2410
2017-06-30T10:05:14.444Z,870
2017-06-30T10:06:14.498Z,2280
2017-06-30T10:07:14.853Z,2620
2017-06-30T10:08:14.900Z,885
2017-06-30T10:09:15.571Z,670
2017-06-30T10:10:15.007Z,445
2017-06-30T10:11:14.744Z,450
2017-06-30T10:12:14.795Z,885
2017-06-30T10:13:15.767Z,1220
2017-06-30T10:14:15.209Z,2545
2017-06-30T10:15:15.554Z,2520
2017-06-30T10:16:15.291Z,2130
2017-06-30T10:17:15.354Z,2230
2017-06-30T10:18:15.086Z,1655
2017-06-30T10:19:15.821Z,2270
2017-06-30T10:20:15.854Z,2220
2017-06-30T10:21:15.849Z,1370
2017-06-30T10:22:15.898Z,2235
2017-06-30T10:23:15.327Z,480
2017-06-30T10:24:16.314Z,1765
2017-06-30T10:25:16.048Z,660
2017-06-30T10:26:15.793Z,770
2017-06-30T10:27:15.544Z,1490
2017-06-30T10:28:15.577Z,625
2017-06-30T10:29:15.852Z,520
2017-06-30T10:30:15.990Z,1420
2017-06-30T10:31:15.728Z,555
2017-06-30T10:32:15.774Z,1460
2017-06-30T10:33:16.130Z,2490
2017-06-30T10:34:15.876Z,2490
2017-06-30T10:35:16.231Z,1795
2017-06-30T10:36:16.604Z,460
2017-06-30T10:37:16.359Z,615
2017-06-30T10:38:16.065Z,2285
2017-06-30T10:39:16.723Z,500
2017-06-30T10:40:16.157Z,430
2017-06-30T10:41:16.517Z,330
2017-06-30T10:42:16.260Z,295
2017-06-30T10:43:16.308Z,2560
2017-06-30T10:44:16.355Z,790
2017-06-30T10:45:16.845Z,565
2017-06-30T10:46:16.448Z,455
2017-06-30T10:47:17.109Z,405
2017-06-30T10:48:16.542Z,395
2017-06-30T10:49:16.898Z,935
2017-06-30T10:50:16.950Z,1610
2017-06-30T10:51:17.305Z,1810
2017-06-30T10:52:17.345Z,530
2017-06-30T10:53:17.092Z,2515
2017-06-30T10:54:16.828Z,2140
2017-06-30T10:55:17.185Z,1865
2017-06-30T10:56:16.917Z,1160
2017-06-30T10:57:17.276Z,565
2017-06-30T10:58:17.012Z,500
2017-06-30T10:59:17.409Z,400
2017-06-30T11:00:17.421Z,490
2017-06-30T11:01:17.463Z,525
2017-06-30T11:02:17.205Z,475
2017-06-30T11:03:17.562Z,515
2017-06-30T11:04:17.305Z,455
2017-06-30T11:05:17.659Z,485
2017-06-30T11:06:17.711Z,465
2017-06-30T11:07:17.444Z,415
2017-06-30T11:08:18.414Z,370
2017-06-30T11:09:18.190Z,290
2017-06-30T11:10:17.912Z,280
2017-06-30T11:11:18.249Z,390
2017-06-30T11:12:17.679Z,480
2017-06-30T11:13:17.720Z,480
2017-06-30T11:14:18.382Z,475
2017-06-30T11:15:18.140Z,470
2017-06-30T11:16:17.860Z,480
2017-06-30T11:17:17.905Z,430
2017-06-30T11:18:18.265Z,395
2017-06-30T11:19:17.997Z,455
2017-06-30T11:20:18.050Z,420
2017-06-30T11:21:18.091Z,480
2017-06-30T11:22:18.441Z,410
2017-06-30T11:23:18.182Z,355
2017-06-30T11:24:18.541Z,315
2017-06-30T11:25:18.274Z,300
2017-06-30T11:26:18.932Z,385
2017-06-30T11:27:18.661Z,420
2017-06-30T11:28:18.398Z,355
2017-06-30T11:29:19.745Z,305
2017-06-30T11:30:18.491Z,260
2017-06-30T11:31:18.846Z,245
2017-06-30T11:32:18.887Z,310
2017-06-30T11:33:19.244Z,275
2017-06-30T11:34:18.974Z,260
2017-06-30T11:35:19.083Z,245
2017-06-30T11:36:19.071Z,235
2017-06-30T11:37:19.107Z,225
2017-06-30T11:38:19.151Z,230
2017-06-30T11:39:19.193Z,225
2017-06-30T11:40:19.239Z,230
2017-06-30T11:41:18.996Z,230
2017-06-30T11:42:19.019Z,240
2017-06-30T11:43:19.065Z,270
2017-06-30T11:44:19.728Z,320
2017-06-30T11:45:19.467Z,330
2017-06-30T11:46:19.506Z,350
2017-06-30T11:47:19.544Z,420
2017-06-30T11:48:19.283Z,410
2017-06-30T11:49:19.952Z,360
2017-06-30T11:50:19.686Z,315
2017-06-30T11:51:19.406Z,265
2017-06-30T11:52:19.454Z,245
2017-06-30T11:53:19.492Z,225
2017-06-30T11:54:19.535Z,220
2017-06-30T11:55:19.803Z,215
2017-06-30T11:56:20.238Z,205
2017-06-30T11:57:19.665Z,225
2017-06-30T11:58:20.330Z,255
2017-06-30T11:59:20.376Z,235
2017-06-30T12:00:19.798Z,225
2017-06-30T12:01:20.149Z,230
2017-06-30T12:02:20.497Z,235
2017-06-30T12:03:20.241Z,195
2017-06-30T12:04:19.971Z,160
2017-06-30T12:05:20.051Z,165
2017-06-30T12:06:20.051Z,265
2017-06-30T12:07:20.408Z,300
2017-06-30T12:08:20.758Z,290
2017-06-30T12:09:20.803Z,265
2017-06-30T12:10:20.239Z,240
2017-06-30T12:11:20.270Z,210
2017-06-30T12:12:20.623Z,215
2017-06-30T12:13:20.665Z,250
2017-06-30T12:14:21.026Z,225
2017-06-30T12:15:20.759Z,195
2017-06-30T12:16:20.486Z,195
2017-06-30T12:17:20.523Z,215
2017-06-30T12:18:21.184Z,225
2017-06-30T12:19:20.616Z,210
2017-06-30T12:20:20.966Z,215
2017-06-30T12:21:20.703Z,230
2017-06-30T12:22:21.353Z,235
2017-06-30T12:23:20.786Z,240
2017-06-30T12:24:21.136Z,235
2017-06-30T12:25:21.174Z,215
2017-06-30T12:26:20.910Z,165
2017-06-30T12:27:21.265Z,125
2017-06-30T12:28:21.615Z,115
2017-06-30T12:29:21.348Z,130
2017-06-30T12:30:21.702Z,195
2017-06-30T12:31:21.435Z,245
2017-06-30T12:32:21.778Z,320
2017-06-30T12:33:21.211Z,370
2017-06-30T12:34:21.311Z,410
2017-06-30T12:35:21.296Z,410
2017-06-30T12:36:21.957Z,380
2017-06-30T12:37:21.998Z,320
2017-06-30T12:38:22.359Z,265
2017-06-30T12:39:22.089Z,225
2017-06-30T12:40:21.518Z,210
2017-06-30T12:41:21.873Z,220
2017-06-30T12:42:21.599Z,270
2017-06-30T12:43:21.954Z,260
2017-06-30T12:44:22.013Z,225
2017-06-30T12:45:21.725Z,205
2017-06-30T12:46:21.769Z,185
2017-06-30T12:47:22.427Z,190
2017-06-30T12:48:22.476Z,230
2017-06-30T12:49:22.220Z,280
2017-06-30T12:50:21.941Z,325
2017-06-30T12:51:21.984Z,345
2017-06-30T12:52:22.336Z,340
2017-06-30T12:53:22.378Z,330
2017-06-30T12:54:22.433Z,340
2017-06-30T12:55:22.158Z,350
2017-06-30T12:56:22.812Z,350
2017-06-30T12:57:22.899Z,360
2017-06-30T12:58:23.230Z,395
2017-06-30T12:59:22.643Z,430
2017-06-30T13:00:22.373Z,420
2017-06-30T13:01:23.032Z,375
2017-06-30T13:02:22.463Z,335
2017-06-30T13:03:23.164Z,330
2017-06-30T13:04:23.790Z,285
2017-06-30T13:05:22.597Z,260
2017-06-30T13:06:22.637Z,250
2017-06-30T13:07:22.985Z,265
2017-06-30T13:08:23.029Z,265
2017-06-30T13:09:22.766Z,250
2017-06-30T13:10:22.807Z,230
2017-06-30T13:11:22.852Z,215
2017-06-30T13:12:23.206Z,190
2017-06-30T13:13:23.240Z,170
2017-06-30T13:14:23.282Z,160
2017-06-30T13:15:23.090Z,155
2017-06-30T13:16:26.040Z,145
2017-06-30T13:17:23.110Z,140
2017-06-30T13:18:23.455Z,135
2017-06-30T13:19:23.208Z,180
2017-06-30T13:20:23.234Z,175
2017-06-30T13:21:23.588Z,170
2017-06-30T13:22:23.631Z,160
2017-06-30T13:23:23.679Z,150
2017-06-30T13:24:23.811Z,150
2017-06-30T13:25:24.461Z,150
2017-06-30T13:26:23.495Z,140
2017-06-30T13:27:23.838Z,140
2017-06-30T13:28:23.882Z,150
2017-06-30T13:29:23.618Z,155
2017-06-30T13:30:23.973Z,170
2017-06-30T13:31:24.320Z,180
2017-06-30T13:32:24.054Z,190
2017-06-30T13:33:23.790Z,180
2017-06-30T13:34:24.458Z,165
2017-06-30T13:35:24.184Z,185
2017-06-30T13:36:24.227Z,230
2017-06-30T13:37:23.962Z,240
2017-06-30T13:38:23.998Z,220
2017-06-30T13:39:24.044Z,205
2017-06-30T13:40:25.024Z,205
2017-06-30T13:41:24.438Z,205
2017-06-30T13:42:24.480Z,190
2017-06-30T13:43:24.211Z,210
2017-06-30T13:44:24.578Z,195
2017-06-30T13:45:24.302Z,195
2017-06-30T13:46:24.960Z,210
2017-06-30T13:47:24.998Z,210
2017-06-30T13:48:24.743Z,220
2017-06-30T13:49:24.474Z,230
2017-06-30T13:50:25.132Z,235
2017-06-30T13:51:24.860Z,255
2017-06-30T13:52:25.519Z,285
2017-06-30T13:53:24.962Z,275
2017-06-30T13:54:25.006Z,255
2017-06-30T13:55:25.086Z,240
2017-06-30T13:56:25.450Z,240
2017-06-30T13:57:25.135Z,220
2017-06-30T13:58:25.041Z,205
2017-06-30T13:59:25.202Z,225
2017-06-30T14:00:25.527Z,235
2017-06-30T14:01:25.330Z,210